createdAt,value
2022-10-11T00:00:32.986Z,91.49
2022-10-11T00:03:01.921Z,91.73
2022-10-11T00:05:30.381Z,91.71
2022-10-11T00:07:58.677Z,91.83
2022-10-11T00:10:27.011Z,91.78
2022-10-11T00:12:54.899Z,91.75
2022-10-11T00:15:23.539Z,91.20
2022-10-11T00:17:52.908Z,91.05
2022-10-11T00:20:21.126Z,91.68
2022-10-11T00:22:50.202Z,91.78
2022-10-11T00:25:18.720Z,91.32
2022-10-11T00:27:46.870Z,91.38
2022-10-11T00:30:15.381Z,92.04
2022-10-11T00:32:43.390Z,92.52
2022-10-11T00:35:12.571Z,92.09
2022-10-11T00:37:40.600Z,92.27
2022-10-11T00:40:13.798Z,92.09
2022-10-11T00:42:41.716Z,91.96
2022-10-11T00:45:47.109Z,92.38
2022-10-11T00:48:22.616Z,91.49
2022-10-11T00:50:51.991Z,91.62
2022-10-11T00:53:19.867Z,91.74
2022-10-11T00:55:52.332Z,91.42
2022-10-11T00:58:22.274Z,91.36
2022-10-11T01:00:50.681Z,91.88
2022-10-11T01:03:21.409Z,92.04
2022-10-11T01:05:49.833Z,91.84
2022-10-11T01:08:19.599Z,91.82
2022-10-11T01:10:47.628Z,91.43
2022-10-11T01:13:27.343Z,91.02
2022-10-11T01:16:02.214Z,89.69
2022-10-11T01:18:36.289Z,89.81
2022-10-11T01:21:14.443Z,89.14
2022-10-11T01:24:28.133Z,89.49
2022-10-11T01:27:32.197Z,87.90
2022-10-11T01:30:15.872Z,88.39
2022-10-11T01:32:52.170Z,89.12
2022-10-11T01:35:25.977Z,89.12
2022-10-11T01:38:00.888Z,89.33
2022-10-11T01:40:34.862Z,89.78
2022-10-11T01:43:04.905Z,89.57
2022-10-11T01:45:35.677Z,90.34
2022-10-11T01:48:07.026Z,89.94
2022-10-11T01:50:41.594Z,89.98
2022-10-11T01:53:26.358Z,89.92
2022-10-11T01:55:58.734Z,90.42
2022-10-11T01:58:43.585Z,89.71
2022-10-11T02:01:25.620Z,90.42
2022-10-11T02:04:02.489Z,90.26
2022-10-11T02:06:36.715Z,90.84
2022-10-11T02:09:13.301Z,90.53
2022-10-11T02:11:41.233Z,90.96
2022-10-11T02:14:12.377Z,91.61
2022-10-11T02:16:47.496Z,91.15
2022-10-11T02:19:20.687Z,91.13
2022-10-11T02:21:54.043Z,91.58
2022-10-11T02:24:27.230Z,91.61
2022-10-11T02:26:58.441Z,91.59
2022-10-11T02:29:30.397Z,91.54
2022-10-11T02:32:01.612Z,91.20
2022-10-11T02:34:34.466Z,91.68
2022-10-11T02:37:07.427Z,91.98
2022-10-11T02:39:41.010Z,91.45
2022-10-11T02:42:14.970Z,91.25
2022-10-11T02:44:46.421Z,91.15
2022-10-11T02:47:16.130Z,92.13
2022-10-11T02:49:43.951Z,92.17
2022-10-11T02:52:11.763Z,92.54
2022-10-11T02:54:39.620Z,93.28
2022-10-11T02:57:07.443Z,93.15
2022-10-11T02:59:35.283Z,93.49
2022-10-11T03:02:03.199Z,92.95
2022-10-11T03:04:32.487Z,92.76
2022-10-11T03:07:00.327Z,92.64
2022-10-11T03:09:28.273Z,92.31
2022-10-11T03:11:56.084Z,91.71
2022-10-11T03:14:25.088Z,91.67
2022-10-11T03:16:53.043Z,92.59
2022-10-11T03:19:20.855Z,92.75
2022-10-11T03:21:50.066Z,92.46
2022-10-11T03:24:17.975Z,92.31
2022-10-11T03:26:46.028Z,92.30
2022-10-11T03:29:13.868Z,92.64
2022-10-11T03:31:41.740Z,92.64
2022-10-11T03:34:10.058Z,92.41
2022-10-11T03:36:38.108Z,92.69
2022-10-11T03:39:07.547Z,92.14
2022-10-11T03:41:35.362Z,91.49
2022-10-11T03:44:03.176Z,90.82
2022-10-11T03:46:31.621Z,90.73
2022-10-11T03:48:59.526Z,90.24
2022-10-11T03:51:27.488Z,89.28
2022-10-11T03:53:55.470Z,89.05
2022-10-11T03:56:24.985Z,88.71
2022-10-11T03:58:52.803Z,88.48
2022-10-11T04:01:20.883Z,88.40
2022-10-11T04:03:48.730Z,88.11
2022-10-11T04:06:16.611Z,88.52
2022-10-11T04:08:44.657Z,89.02
2022-10-11T04:11:13.503Z,89.15
2022-10-11T04:13:42.776Z,88.89
2022-10-11T04:16:10.739Z,88.77
2022-10-11T04:18:38.659Z,88.91
2022-10-11T04:21:06.919Z,89.60
2022-10-11T04:23:35.392Z,90.08
2022-10-11T04:26:07.444Z,90.61
2022-10-11T04:28:36.638Z,90.99
2022-10-11T04:31:07.836Z,90.87
2022-10-11T04:33:35.903Z,91.15
2022-10-11T04:36:04.493Z,90.96
2022-10-11T04:38:32.584Z,90.98
2022-10-11T04:41:08.098Z,91.31
2022-10-11T04:43:36.202Z,91.70
2022-10-11T04:46:06.122Z,91.56
2022-10-11T04:48:34.680Z,91.35
2022-10-11T04:51:02.577Z,91.58
2022-10-11T04:53:30.527Z,91.25
2022-10-11T04:56:01.654Z,91.85
2022-10-11T04:58:30.411Z,92.18
2022-10-11T05:00:58.301Z,91.71
2022-10-11T05:03:28.352Z,92.63
2022-10-11T05:05:56.359Z,92.11
2022-10-11T05:08:24.757Z,92.15
2022-10-11T05:10:58.154Z,91.80
2022-10-11T05:13:26.584Z,91.63
2022-10-11T05:15:54.848Z,92.15
2022-10-11T05:18:22.982Z,92.19
2022-10-11T05:20:59.928Z,92.35
2022-10-11T05:23:28.240Z,92.31
2022-10-11T05:25:56.069Z,92.20
2022-10-11T05:28:24.108Z,92.18
2022-10-11T05:30:52.150Z,91.85
2022-10-11T05:33:20.004Z,92.05
2022-10-11T05:35:47.896Z,91.90
2022-10-11T05:38:17.291Z,92.05
2022-10-11T05:40:45.223Z,92.14
2022-10-11T05:43:13.398Z,92.02
2022-10-11T05:45:44.257Z,92.00
2022-10-11T05:48:12.712Z,91.49
2022-10-11T05:50:40.628Z,91.57
2022-10-11T05:53:08.547Z,91.54
2022-10-11T05:55:39.180Z,91.87
2022-10-11T05:58:08.539Z,91.72
2022-10-11T06:00:38.017Z,91.00
2022-10-11T06:03:06.864Z,90.96
2022-10-11T06:05:36.195Z,90.78
2022-10-11T06:08:04.081Z,90.03
2022-10-11T06:10:31.943Z,89.87
2022-10-11T06:13:01.394Z,89.63
2022-10-11T06:15:29.418Z,89.56
2022-10-11T06:17:58.000Z,89.77
2022-10-11T06:20:26.157Z,89.13
2022-10-11T06:22:54.199Z,89.28
2022-10-11T06:25:22.108Z,89.50
2022-10-11T06:27:50.077Z,89.43
2022-10-11T06:30:19.370Z,88.92
2022-10-11T06:32:47.402Z,88.83
2022-10-11T06:35:15.328Z,88.76
2022-10-11T06:37:43.182Z,89.34
2022-10-11T06:40:12.235Z,89.25
2022-10-11T06:42:40.164Z,88.83
2022-10-11T06:45:09.237Z,88.25
2022-10-11T06:47:38.432Z,87.93
2022-10-11T06:50:07.001Z,88.20
2022-10-11T06:52:34.907Z,87.61
2022-10-11T06:55:02.737Z,87.25
2022-10-11T06:57:30.622Z,87.37
2022-10-11T06:59:58.569Z,87.34
2022-10-11T07:02:26.436Z,86.10
2022-10-11T07:04:55.821Z,86.26
2022-10-11T07:07:23.695Z,85.88
2022-10-11T07:09:51.517Z,85.76
2022-10-11T07:12:19.529Z,85.44
2022-10-11T07:14:47.401Z,85.41
2022-10-11T07:17:15.276Z,84.92
2022-10-11T07:19:43.199Z,85.21
2022-10-11T07:22:12.458Z,84.79
2022-10-11T07:24:40.283Z,84.07
2022-10-11T07:27:08.261Z,83.98
2022-10-11T07:29:36.125Z,83.83
2022-10-11T07:32:04.082Z,82.97
2022-10-11T07:34:32.041Z,82.62
2022-10-11T07:36:59.866Z,82.73
2022-10-11T07:39:30.973Z,81.81
2022-10-11T07:41:59.352Z,82.39
2022-10-11T07:44:27.488Z,81.85
2022-10-11T07:46:55.498Z,81.38
2022-10-11T07:49:23.569Z,81.59
2022-10-11T07:51:51.408Z,79.68
2022-10-11T07:54:19.434Z,81.02
2022-10-11T07:56:48.997Z,79.65
2022-10-11T07:59:16.874Z,80.22
2022-10-11T08:01:44.755Z,79.64
2022-10-11T08:04:12.913Z,79.66
2022-10-11T08:06:40.931Z,79.28
2022-10-11T08:09:09.334Z,78.69
2022-10-11T08:11:38.942Z,78.14
2022-10-11T08:14:11.326Z,77.04
2022-10-11T08:16:40.962Z,76.75
2022-10-11T08:19:09.102Z,77.12
2022-10-11T08:21:37.278Z,75.87
2022-10-11T08:24:07.019Z,76.51
2022-10-11T08:26:35.479Z,76.33
2022-10-11T08:29:04.028Z,75.00
2022-10-11T08:31:34.417Z,74.35
2022-10-11T08:34:02.784Z,73.95
2022-10-11T08:36:30.620Z,74.46
2022-10-11T08:38:58.617Z,73.77
2022-10-11T08:41:30.824Z,73.36
2022-10-11T08:44:15.717Z,73.48
2022-10-11T08:46:50.054Z,73.03
2022-10-11T08:49:20.520Z,73.02
2022-10-11T08:51:52.160Z,72.90
2022-10-11T08:54:24.417Z,71.81
2022-10-11T08:56:52.756Z,72.34
2022-10-11T08:59:30.293Z,70.91
2022-10-11T09:02:05.075Z,71.34
2022-10-11T09:04:33.522Z,70.37
2022-10-11T09:07:08.459Z,70.35
2022-10-11T09:10:02.523Z,69.99
2022-10-11T09:12:41.161Z,68.81
2022-10-11T09:15:19.152Z,69.41
2022-10-11T09:18:03.300Z,69.70
2022-10-11T09:20:53.198Z,69.03
2022-10-11T09:23:39.597Z,69.14
2022-10-11T09:26:13.448Z,69.16
2022-10-11T09:28:51.734Z,68.26
2022-10-11T09:31:19.941Z,68.12
2022-10-11T09:33:51.216Z,68.25
2022-10-11T09:36:29.833Z,68.08
2022-10-11T09:39:08.579Z,67.77
2022-10-11T09:41:42.787Z,67.52
2022-10-11T09:44:21.862Z,67.39
2022-10-11T09:46:51.067Z,67.82
2022-10-11T09:49:22.776Z,67.54
2022-10-11T09:51:54.923Z,67.79
2022-10-11T09:54:28.152Z,67.82
2022-10-11T09:56:56.217Z,65.97
2022-10-11T09:59:29.039Z,66.92
2022-10-11T10:02:27.390Z,65.26
2022-10-11T10:05:17.351Z,64.65
2022-10-11T10:08:05.118Z,65.07
2022-10-11T10:10:38.703Z,65.03
2022-10-11T10:13:18.124Z,63.98
2022-10-11T10:15:48.190Z,62.42
2022-10-11T10:18:23.874Z,61.50
2022-10-11T10:20:56.099Z,60.05
2022-10-11T10:23:27.811Z,59.92
2022-10-11T10:26:12.502Z,58.79
2022-10-11T10:28:55.032Z,60.32
2022-10-11T10:31:24.638Z,59.73
2022-10-11T10:33:55.665Z,60.15
2022-10-11T10:36:29.904Z,59.15
2022-10-11T10:39:02.914Z,58.96
2022-10-11T10:41:31.055Z,59.61
2022-10-11T10:44:01.162Z,59.86
2022-10-11T10:46:46.451Z,60.03
2022-10-11T10:49:41.599Z,60.84
2022-10-11T10:52:30.654Z,59.34
2022-10-11T10:55:04.815Z,59.67
2022-10-11T10:57:42.168Z,58.92
2022-10-11T11:00:16.935Z,58.32
2022-10-11T11:02:51.303Z,57.25
2022-10-11T11:05:28.638Z,56.78
2022-10-11T11:08:09.157Z,56.34
2022-10-11T11:10:42.126Z,56.87
2022-10-11T11:13:20.878Z,56.10
2022-10-11T11:15:59.436Z,56.13
2022-10-11T11:18:36.920Z,56.08
2022-10-11T11:21:24.554Z,56.14
2022-10-11T11:24:00.361Z,55.62
2022-10-11T11:26:37.822Z,55.95
2022-10-11T11:29:22.537Z,56.76
2022-10-11T11:32:12.010Z,56.38
2022-10-11T11:34:45.517Z,57.27
2022-10-11T11:37:24.623Z,57.11
2022-10-11T11:39:58.294Z,57.09
2022-10-11T11:42:31.110Z,56.84
2022-10-11T11:45:05.390Z,56.79
2022-10-11T11:47:37.882Z,56.69
2022-10-11T11:50:22.726Z,56.19
2022-10-11T11:52:53.869Z,56.01
2022-10-11T11:55:31.073Z,54.94
2022-10-11T11:58:08.697Z,55.08
2022-10-11T12:00:43.469Z,54.83
2022-10-11T12:03:16.836Z,56.42
2022-10-11T12:06:20.715Z,56.36
2022-10-11T12:08:50.558Z,55.34
2022-10-11T12:11:25.169Z,55.21
2022-10-11T12:13:55.063Z,55.89
2022-10-11T12:16:23.464Z,55.05
2022-10-11T12:18:55.845Z,54.80
2022-10-11T12:21:30.961Z,55.06
2022-10-11T12:24:00.182Z,55.18
2022-10-11T12:26:44.328Z,54.22
2022-10-11T12:29:29.071Z,53.65
2022-10-11T12:32:55.102Z,53.45
2022-10-11T12:36:08.259Z,53.87
2022-10-11T12:38:41.910Z,55.15
2022-10-11T12:41:53.825Z,54.53
2022-10-11T12:44:24.622Z,54.71
2022-10-11T12:47:26.862Z,54.61
2022-10-11T12:50:11.685Z,55.14
2022-10-11T12:52:51.196Z,55.01
2022-10-11T12:55:39.648Z,55.05
2022-10-11T12:58:28.309Z,55.46
2022-10-11T13:01:17.556Z,53.93
2022-10-11T13:03:49.392Z,54.29
2022-10-11T13:06:20.669Z,54.42
2022-10-11T13:08:53.379Z,54.97
2022-10-11T13:11:23.658Z,55.22
2022-10-11T13:13:56.184Z,55.01
2022-10-11T13:16:26.000Z,55.05
2022-10-11T13:18:58.231Z,55.42
2022-10-11T13:21:31.986Z,55.85
2022-10-11T13:24:02.622Z,55.23
2022-10-11T13:26:32.645Z,55.90
2022-10-11T13:29:02.085Z,55.71
2022-10-11T13:31:30.192Z,56.20
2022-10-11T13:34:00.352Z,56.26
2022-10-11T13:36:28.884Z,56.63
2022-10-11T13:39:00.006Z,57.21
2022-10-11T13:41:30.686Z,56.93
2022-10-11T13:44:01.216Z,56.71
2022-10-11T13:46:31.764Z,56.48
2022-10-11T13:49:01.441Z,56.81
2022-10-11T13:51:32.784Z,56.34
2022-10-11T13:54:03.723Z,55.32
2022-10-11T13:56:36.054Z,55.41
2022-10-11T13:59:05.809Z,55.34
2022-10-11T14:01:40.732Z,54.15
2022-10-11T14:04:11.308Z,53.77
2022-10-11T14:06:45.424Z,52.92
2022-10-11T14:09:20.932Z,51.85
2022-10-11T14:11:51.132Z,53.31
2022-10-11T14:14:48.841Z,52.38
2022-10-11T14:17:19.664Z,53.54
2022-10-11T14:19:49.674Z,53.19
2022-10-11T14:22:18.877Z,53.94
2022-10-11T14:24:49.387Z,54.40
2022-10-11T14:27:23.473Z,54.54
2022-10-11T14:30:24.103Z,54.29
2022-10-11T14:32:47.420Z,55.30
2022-10-11T14:35:18.181Z,55.31
2022-10-11T14:37:46.568Z,55.60
2022-10-11T14:40:17.367Z,55.93
2022-10-11T14:42:45.393Z,56.30
2022-10-11T14:45:15.010Z,56.35
2022-10-11T14:47:43.383Z,56.98
2022-10-11T14:50:36.595Z,57.14
2022-10-11T14:53:05.903Z,58.15
2022-10-11T14:55:33.865Z,58.75
2022-10-11T14:58:01.922Z,59.47
2022-10-11T15:00:33.183Z,59.97
2022-10-11T15:03:01.200Z,60.24
2022-10-11T15:05:33.938Z,60.32
2022-10-11T15:08:02.511Z,60.74
2022-10-11T15:10:34.732Z,60.54
2022-10-11T15:13:03.470Z,60.32
2022-10-11T15:15:35.665Z,60.12
2022-10-11T15:18:05.711Z,60.51
2022-10-11T15:20:36.618Z,60.19
2022-10-11T15:23:06.518Z,60.56
2022-10-11T15:25:34.737Z,60.40
2022-10-11T15:28:02.786Z,60.85
2022-10-11T15:30:38.543Z,60.94
2022-10-11T15:33:08.131Z,60.51
2022-10-11T15:35:36.112Z,60.76
2022-10-11T15:38:04.043Z,61.38
2022-10-11T15:40:34.858Z,61.04
2022-10-11T15:43:03.162Z,61.54
2022-10-11T15:45:32.961Z,61.89
2022-10-11T15:48:00.866Z,61.77
2022-10-11T15:50:37.987Z,62.31
2022-10-11T15:53:07.928Z,62.12
2022-10-11T15:55:39.668Z,61.90
2022-10-11T15:58:07.907Z,62.32
2022-10-11T16:00:37.179Z,62.05
2022-10-11T16:03:06.045Z,62.30
2022-10-11T16:05:34.041Z,62.74
2022-10-11T16:08:02.006Z,62.85
2022-10-11T16:10:30.053Z,63.59
2022-10-11T16:12:58.202Z,63.65
2022-10-11T16:15:26.300Z,63.90
2022-10-11T16:17:55.876Z,64.14
2022-10-11T16:20:25.689Z,64.32
2022-10-11T16:22:55.656Z,63.93
2022-10-11T16:25:24.074Z,64.51
2022-10-11T16:27:52.815Z,64.46
2022-10-11T16:30:21.656Z,64.53
2022-10-11T16:32:49.604Z,66.04
2022-10-11T16:35:18.946Z,66.31
2022-10-11T16:37:47.100Z,65.83
2022-10-11T16:40:17.636Z,66.04
2022-10-11T16:42:46.643Z,66.09
2022-10-11T16:45:16.177Z,66.25
2022-10-11T16:47:45.199Z,66.64
2022-10-11T16:50:14.129Z,66.67
2022-10-11T16:52:43.428Z,67.21
2022-10-11T16:55:11.577Z,67.52
2022-10-11T16:57:39.824Z,67.92
2022-10-11T17:00:09.925Z,67.57
2022-10-11T17:02:38.051Z,68.21
2022-10-11T17:05:06.773Z,68.84
2022-10-11T17:07:34.672Z,69.29
2022-10-11T17:10:06.433Z,69.68
2022-10-11T17:12:37.218Z,69.85
2022-10-11T17:15:06.884Z,69.96
2022-10-11T17:17:35.415Z,70.19
2022-10-11T17:20:03.666Z,70.43
2022-10-11T17:22:31.717Z,70.53
2022-10-11T17:25:01.455Z,70.73
2022-10-11T17:27:30.722Z,71.19
2022-10-11T17:29:58.719Z,71.83
2022-10-11T17:32:26.697Z,72.31
2022-10-11T17:34:55.275Z,72.18
2022-10-11T17:37:23.235Z,73.01
2022-10-11T17:39:51.086Z,73.16
2022-10-11T17:42:18.971Z,72.86
2022-10-11T17:44:48.380Z,73.56
2022-10-11T17:47:16.353Z,73.33
2022-10-11T17:49:44.312Z,74.87
2022-10-11T17:52:12.204Z,75.35
2022-10-11T17:54:40.470Z,75.96
2022-10-11T17:57:08.344Z,76.05
2022-10-11T17:59:36.401Z,76.49
2022-10-11T18:02:05.789Z,77.17
2022-10-11T18:04:33.901Z,77.37
2022-10-11T18:07:02.048Z,78.01
2022-10-11T18:09:30.034Z,77.22
2022-10-11T18:11:57.904Z,76.53
2022-10-11T18:14:25.953Z,76.35
2022-10-11T18:16:53.838Z,75.06
2022-10-11T18:19:23.127Z,74.20
2022-10-11T18:21:51.188Z,73.46
2022-10-11T18:24:19.177Z,73.38
2022-10-11T18:26:47.401Z,72.89
2022-10-11T18:29:15.570Z,73.03
2022-10-11T18:31:43.846Z,72.73
2022-10-11T18:34:13.891Z,73.88
2022-10-11T18:36:43.401Z,75.06
2022-10-11T18:39:14.470Z,75.37
2022-10-11T18:41:44.755Z,75.50
2022-10-11T18:44:15.292Z,76.18
2022-10-11T18:46:43.519Z,75.89
2022-10-11T18:49:11.569Z,76.15
2022-10-11T18:51:41.299Z,76.90
2022-10-11T18:54:16.749Z,76.85
2022-10-11T18:56:48.142Z,76.90
2022-10-11T18:59:16.957Z,77.35
2022-10-11T19:01:46.194Z,78.26
2022-10-11T19:04:16.972Z,78.22
2022-10-11T19:06:47.757Z,78.99
2022-10-11T19:09:21.779Z,79.14
2022-10-11T19:11:51.125Z,78.90
2022-10-11T19:14:21.190Z,79.34
2022-10-11T19:16:51.606Z,79.12
2022-10-11T19:19:21.544Z,79.83
2022-10-11T19:21:49.577Z,79.91
2022-10-11T19:24:20.866Z,79.75
2022-10-11T19:26:49.204Z,80.47
2022-10-11T19:29:19.890Z,80.75
2022-10-11T19:31:50.033Z,81.30
2022-10-11T19:34:18.109Z,81.06
2022-10-11T19:36:46.158Z,81.50
2022-10-11T19:39:16.095Z,81.58
2022-10-11T19:41:45.923Z,81.58
2022-10-11T19:44:14.917Z,81.63
2022-10-11T19:46:51.963Z,81.93
2022-10-11T19:49:22.763Z,81.71
2022-10-11T19:51:51.480Z,81.72
2022-10-11T19:54:20.001Z,81.76
2022-10-11T19:56:49.360Z,81.97
2022-10-11T19:59:17.684Z,82.23
2022-10-11T20:01:52.001Z,82.67
2022-10-11T20:04:51.121Z,83.15
2022-10-11T20:07:08.531Z,83.36
2022-10-11T20:09:36.757Z,83.26
2022-10-11T20:12:06.797Z,84.01
2022-10-11T20:14:35.685Z,84.24
2022-10-11T20:17:04.071Z,83.77
2022-10-11T20:19:32.115Z,84.07
2022-10-11T20:22:00.713Z,83.91
2022-10-11T20:24:32.960Z,84.13
2022-10-11T20:27:01.918Z,84.47
2022-10-11T20:29:31.240Z,84.56
2022-10-11T20:32:00.045Z,84.87
2022-10-11T20:34:28.745Z,84.96
2022-10-11T20:36:56.750Z,85.14
2022-10-11T20:39:24.972Z,85.17
2022-10-11T20:41:52.813Z,85.52
2022-10-11T20:44:20.717Z,85.94
2022-10-11T20:46:50.112Z,85.30
2022-10-11T20:49:19.847Z,85.79
2022-10-11T20:51:47.774Z,85.86
2022-10-11T20:54:17.351Z,85.83
2022-10-11T20:56:45.198Z,85.61
2022-10-11T20:59:13.038Z,85.99
2022-10-11T21:01:42.290Z,86.26
2022-10-11T21:04:19.021Z,86.70
2022-10-11T21:06:47.949Z,87.07
2022-10-11T21:09:17.020Z,86.36
2022-10-11T21:11:45.235Z,86.28
2022-10-11T21:14:13.157Z,86.58
2022-10-11T21:16:41.010Z,86.70
2022-10-11T21:19:09.321Z,86.98
2022-10-11T21:21:38.721Z,87.13
2022-10-11T21:24:07.059Z,87.24
2022-10-11T21:26:35.257Z,87.66
2022-10-11T21:29:04.236Z,87.71
2022-10-11T21:31:34.407Z,87.77
2022-10-11T21:34:02.739Z,87.80
2022-10-11T21:36:30.651Z,87.43
2022-10-11T21:38:59.953Z,87.72
2022-10-11T21:41:30.246Z,87.63
2022-10-11T21:43:59.061Z,87.31
2022-10-11T21:49:17.538Z,87.84
2022-10-11T21:51:45.466Z,88.02
2022-10-11T21:54:14.675Z,88.11
2022-10-11T21:56:42.824Z,88.15
2022-10-11T21:59:12.332Z,88.81
2022-10-11T22:01:40.828Z,88.96
2022-10-11T22:04:09.375Z,88.89
2022-10-11T22:06:37.344Z,88.44
2022-10-11T22:09:06.570Z,88.76
2022-10-11T22:11:36.371Z,88.63
2022-10-11T22:14:05.017Z,88.69
2022-10-11T22:16:34.252Z,89.14
2022-10-11T22:19:02.329Z,89.19
2022-10-11T22:21:30.155Z,89.40
2022-10-11T22:23:57.980Z,89.77
2022-10-11T22:26:29.912Z,89.50
2022-10-11T22:28:59.900Z,89.46
2022-10-11T22:31:29.375Z,89.14
2022-10-11T22:33:58.486Z,89.26
2022-10-11T22:36:27.038Z,89.60
2022-10-11T22:38:55.511Z,89.57
2022-10-11T22:41:23.613Z,89.44
2022-10-11T22:43:51.489Z,89.32
2022-10-11T22:46:20.867Z,89.64
2022-10-11T22:48:48.658Z,90.00
2022-10-11T22:51:16.822Z,89.71
2022-10-11T22:53:44.880Z,89.53
2022-10-11T22:56:12.703Z,90.04
2022-10-11T22:58:40.564Z,89.51
2022-10-11T23:01:09.394Z,89.81
2022-10-11T23:03:38.884Z,89.28
2022-10-11T23:06:07.298Z,89.53
2022-10-11T23:08:35.240Z,89.96
2022-10-11T23:11:07.074Z,89.56
2022-10-11T23:13:34.987Z,89.20
2022-10-11T23:16:07.207Z,89.00
2022-10-11T23:18:35.133Z,89.43
2022-10-11T23:21:05.023Z,88.99
2022-10-11T23:23:33.037Z,89.53
2022-10-11T23:26:05.627Z,89.44
2022-10-11T23:28:33.677Z,89.55
2022-10-11T23:31:01.685Z,89.29
2022-10-11T23:33:30.342Z,89.69
2022-10-11T23:35:58.375Z,90.27
2022-10-11T23:38:27.596Z,89.89
2022-10-11T23:40:55.571Z,89.67
2022-10-11T23:43:24.862Z,89.44
2022-10-11T23:45:54.931Z,89.42
2022-10-11T23:48:22.998Z,89.17
2022-10-11T23:50:50.963Z,89.50
2022-10-11T23:53:19.001Z,90.10
2022-10-11T23:55:48.543Z,90.10
2022-10-11T23:58:16.544Z,90.32
